createdAt,value
2022-10-29T00:00:24.397Z,100670.75
2022-10-29T00:02:51.252Z,100670.75
2022-10-29T00:05:18.271Z,100677.13
2022-10-29T00:07:45.143Z,100676.28
2022-10-29T00:10:11.934Z,100681.50
2022-10-29T00:12:38.811Z,100687.00
2022-10-29T00:15:06.098Z,100680.84
2022-10-29T00:17:34.572Z,100689.66
2022-10-29T00:20:01.432Z,100695.03
2022-10-29T00:22:28.382Z,100695.03
2022-10-29T00:24:55.358Z,100689.84
2022-10-29T00:27:22.248Z,100692.59
2022-10-29T00:29:49.106Z,100694.31
2022-10-29T00:32:16.121Z,100695.34
2022-10-29T00:34:42.989Z,100700.66
2022-10-29T00:37:09.842Z,100705.09
2022-10-29T00:39:36.756Z,100707.75
2022-10-29T00:42:05.000Z,100714.03
2022-10-29T00:44:36.060Z,100720.28
2022-10-29T00:47:21.064Z,100725.69
2022-10-29T00:49:55.449Z,100719.53
2022-10-29T00:52:24.833Z,100731.09
2022-10-29T00:54:53.916Z,100732.88
2022-10-29T00:57:30.072Z,100732.25
2022-10-29T00:59:57.224Z,100732.25
2022-10-29T01:02:24.679Z,100731.28
2022-10-29T01:04:53.801Z,100735.72
2022-10-29T01:07:22.570Z,100740.22
2022-10-29T01:09:50.314Z,100742.00
2022-10-29T01:12:36.852Z,100742.88
2022-10-29T01:15:41.931Z,100743.81
2022-10-29T01:18:28.394Z,100743.06
2022-10-29T01:21:42.987Z,100739.56
2022-10-29T01:24:21.806Z,100739.63
2022-10-29T01:26:58.933Z,100745.78
2022-10-29T01:29:25.713Z,100748.56
2022-10-29T01:31:57.470Z,100748.56
2022-10-29T01:34:39.353Z,100739.84
2022-10-29T01:37:41.671Z,100746.84
2022-10-29T01:40:17.619Z,100740.91
2022-10-29T01:42:51.151Z,100740.03
2022-10-29T01:45:27.291Z,100737.38
2022-10-29T01:48:02.444Z,100735.75
2022-10-29T01:50:29.643Z,100743.72
2022-10-29T01:52:58.139Z,100741.13
2022-10-29T01:55:31.189Z,100735.94
2022-10-29T01:57:58.641Z,100739.53
2022-10-29T02:00:25.987Z,100740.38
2022-10-29T02:03:17.725Z,100739.53
2022-10-29T02:06:06.173Z,100741.31
2022-10-29T02:08:42.171Z,100751.09
2022-10-29T02:11:32.777Z,100752.03
2022-10-29T02:14:04.968Z,100745.88
2022-10-29T02:16:33.397Z,100741.53
2022-10-29T02:19:00.847Z,100742.47
2022-10-29T02:21:27.814Z,100735.47
2022-10-29T02:23:54.604Z,100743.41
2022-10-29T02:26:22.058Z,100735.56
2022-10-29T02:28:48.932Z,100739.16
2022-10-29T02:31:15.785Z,100735.66
2022-10-29T02:33:42.643Z,100742.78
2022-10-29T02:36:09.767Z,100739.25
2022-10-29T02:38:36.599Z,100730.56
2022-10-29T02:41:03.479Z,100727.97
2022-10-29T02:43:30.277Z,100733.22
2022-10-29T02:46:12.571Z,100732.34
2022-10-29T02:48:39.355Z,100731.50
2022-10-29T02:51:06.294Z,100731.56
2022-10-29T02:53:33.168Z,100732.53
2022-10-29T02:56:00.008Z,100736.06
2022-10-29T02:58:26.959Z,100734.34
2022-10-29T03:00:53.891Z,100742.28
2022-10-29T03:03:20.898Z,100746.84
2022-10-29T03:05:49.244Z,100741.53
2022-10-29T03:08:16.650Z,100738.88
2022-10-29T03:10:43.604Z,100743.34
2022-10-29T03:13:13.443Z,100738.13
2022-10-29T03:15:44.590Z,100740.69
2022-10-29T03:18:11.371Z,100746.91
2022-10-29T03:20:38.413Z,100738.97
2022-10-29T03:23:05.266Z,100732.84
2022-10-29T03:25:32.104Z,100739.06
2022-10-29T03:27:59.025Z,100728.56
2022-10-29T03:30:25.953Z,100737.34
2022-10-29T03:32:52.870Z,100733.03
2022-10-29T03:35:19.809Z,100737.47
2022-10-29T03:37:50.831Z,100746.28
2022-10-29T03:40:18.706Z,100753.38
2022-10-29T03:42:46.641Z,100757.81
2022-10-29T03:45:13.659Z,100757.75
2022-10-29T03:47:40.601Z,100755.16
2022-10-29T03:50:08.188Z,100752.53
2022-10-29T03:52:35.067Z,100752.63
2022-10-29T03:55:01.966Z,100750.81
2022-10-29T03:57:28.774Z,100753.56
2022-10-29T03:59:56.390Z,100751.03
2022-10-29T04:02:23.896Z,100747.41
2022-10-29T04:04:50.872Z,100744.00
2022-10-29T04:07:18.096Z,100743.13
2022-10-29T04:09:44.914Z,100743.13
2022-10-29T04:12:11.760Z,100745.91
2022-10-29T04:14:44.455Z,100740.59
2022-10-29T04:17:12.852Z,100744.09
2022-10-29T04:19:39.942Z,100748.63
2022-10-29T04:30:27.811Z,100754.13
2022-10-29T04:32:59.754Z,100760.28
2022-10-29T04:35:28.063Z,100762.19
2022-10-29T04:37:58.060Z,100758.47
2022-10-29T04:40:25.377Z,100757.63
2022-10-29T04:42:52.338Z,100763.03
2022-10-29T04:45:19.231Z,100765.75
2022-10-29T04:47:46.419Z,100773.72
2022-10-29T04:50:13.507Z,100778.19
2022-10-29T04:52:40.391Z,100777.22
2022-10-29T04:55:07.571Z,100781.66
2022-10-29T04:57:34.498Z,100780.84
2022-10-29T05:00:01.402Z,100787.06
2022-10-29T05:02:28.328Z,100793.25
2022-10-29T05:04:55.201Z,100776.47
2022-10-29T05:07:22.020Z,100765.97
2022-10-29T05:09:48.783Z,100782.81
2022-10-29T05:12:15.647Z,100773.94
2022-10-29T05:14:42.444Z,100771.28
2022-10-29T05:17:09.305Z,100779.31
2022-10-29T05:19:36.198Z,100770.69
2022-10-29T05:22:03.041Z,100755.56
2022-10-29T05:24:29.862Z,100759.13
2022-10-29T05:26:56.682Z,100754.69
2022-10-29T05:29:23.548Z,100752.91
2022-10-29T05:31:53.963Z,100750.25
2022-10-29T05:34:21.764Z,100762.53
2022-10-29T05:36:48.640Z,100760.84
2022-10-29T05:39:15.831Z,100774.13
2022-10-29T05:41:42.891Z,100774.19
2022-10-29T05:44:09.938Z,100771.81
2022-10-29T05:46:36.799Z,100773.53
2022-10-29T05:49:04.385Z,100777.81
2022-10-29T05:51:31.601Z,100778.84
2022-10-29T05:53:58.392Z,100773.53
2022-10-29T05:56:25.236Z,100782.25
2022-10-29T05:58:52.225Z,100784.97
2022-10-29T06:01:22.084Z,100782.25
2022-10-29T06:03:49.042Z,100779.59
2022-10-29T06:06:15.987Z,100786.59
2022-10-29T06:08:42.872Z,100793.72
2022-10-29T06:11:09.755Z,100790.09
2022-10-29T06:13:36.774Z,100792.75
2022-10-29T06:16:03.761Z,100797.19
2022-10-29T06:18:30.848Z,100799.00
2022-10-29T06:20:59.745Z,100803.34
2022-10-29T06:23:27.598Z,100820.00
2022-10-29T06:25:54.564Z,100819.25
2022-10-29T06:28:21.435Z,100815.94
2022-10-29T06:30:50.345Z,100807.91
2022-10-29T06:33:21.248Z,100813.09
2022-10-29T06:35:48.715Z,100816.72
2022-10-29T06:38:15.871Z,100816.72
2022-10-29T06:40:44.009Z,100821.03
2022-10-29T06:43:12.276Z,100811.41
2022-10-29T06:45:39.504Z,100806.00
2022-10-29T06:48:06.968Z,100815.75
2022-10-29T06:50:34.474Z,100818.22
2022-10-29T06:53:04.302Z,100819.81
2022-10-29T06:55:31.434Z,100810.94
2022-10-29T06:58:01.922Z,100800.44
2022-10-29T07:00:30.246Z,100791.53
2022-10-29T07:02:58.084Z,100789.72
2022-10-29T07:05:26.123Z,100783.50
2022-10-29T07:07:58.227Z,100791.22
2022-10-29T07:10:27.746Z,100800.03
2022-10-29T07:12:54.747Z,100799.13
2022-10-29T07:15:25.685Z,100800.81
2022-10-29T07:18:06.155Z,100789.06
2022-10-29T07:20:39.245Z,100792.59
2022-10-29T07:23:06.283Z,100789.84
2022-10-29T07:25:34.375Z,100787.19
2022-10-29T07:28:16.464Z,100802.16
2022-10-29T07:30:44.679Z,100814.38
2022-10-29T07:33:12.154Z,100812.59
2022-10-29T07:35:39.586Z,100808.78
2022-10-29T07:38:10.662Z,100820.25
2022-10-29T07:40:39.757Z,100811.44
2022-10-29T07:43:07.000Z,100809.53
2022-10-29T07:45:34.157Z,100802.53
2022-10-29T07:48:07.870Z,100804.16
2022-10-29T07:50:35.338Z,100805.00
2022-10-29T07:53:03.452Z,100812.84
2022-10-29T07:58:17.423Z,100812.84
2022-10-29T08:00:44.435Z,100820.81
2022-10-29T08:03:13.011Z,100816.56
2022-10-29T08:05:42.590Z,100818.16
2022-10-29T08:08:10.018Z,100837.59
2022-10-29T08:10:37.192Z,100834.94
2022-10-29T08:13:05.721Z,100837.59
2022-10-29T08:15:33.947Z,100842.97
2022-10-29T08:18:01.906Z,100842.91
2022-10-29T08:20:30.133Z,100842.13
2022-10-29T08:23:00.234Z,100837.66
2022-10-29T08:25:27.636Z,100840.25
2022-10-29T08:28:02.711Z,100837.47
2022-10-29T08:30:30.069Z,100838.34
2022-10-29T08:32:57.405Z,100841.00
2022-10-29T08:35:24.629Z,100844.50
2022-10-29T08:37:52.041Z,100842.59
2022-10-29T08:40:51.256Z,100842.72
2022-10-29T08:43:37.063Z,100846.41
2022-10-29T08:46:04.559Z,100839.38
2022-10-29T08:48:34.145Z,100844.59
2022-10-29T08:51:13.909Z,100846.41
2022-10-29T08:53:58.697Z,100855.22
2022-10-29T08:56:37.325Z,100861.28
2022-10-29T08:59:12.652Z,100851.53
2022-10-29T09:01:39.842Z,100852.34
2022-10-29T09:04:27.279Z,100855.00
2022-10-29T09:07:18.424Z,100854.06
2022-10-29T09:10:25.693Z,100860.31
2022-10-29T09:13:25.799Z,100857.66
2022-10-29T09:16:07.742Z,100841.56
2022-10-29T09:18:53.283Z,100853.03
2022-10-29T09:21:35.239Z,100853.88
2022-10-29T09:24:09.115Z,100851.53
2022-10-29T09:26:57.491Z,100857.66
2022-10-29T09:29:58.806Z,100854.94
2022-10-29T09:32:34.205Z,100854.81
2022-10-29T09:35:06.278Z,100838.72
2022-10-29T09:37:42.641Z,100831.63
2022-10-29T09:40:39.814Z,100823.47
2022-10-29T09:43:22.514Z,100830.59
2022-10-29T09:46:09.301Z,100821.50
2022-10-29T09:48:48.308Z,100811.75
2022-10-29T09:51:33.882Z,100809.03
2022-10-29T09:54:01.037Z,100818.06
2022-10-29T09:56:28.287Z,100816.13
2022-10-29T09:59:03.468Z,100816.00
2022-10-29T10:01:30.435Z,100811.69
2022-10-29T10:04:04.592Z,100800.28
2022-10-29T10:06:55.909Z,100805.66
2022-10-29T10:09:22.750Z,100800.34
2022-10-29T10:11:53.166Z,100802.25
2022-10-29T10:14:20.030Z,100800.47
2022-10-29T10:16:47.076Z,100798.94
2022-10-29T10:19:26.604Z,100801.03
2022-10-29T10:22:19.308Z,100793.16
2022-10-29T10:24:46.978Z,100787.19
2022-10-29T10:27:34.120Z,100792.56
2022-10-29T10:30:03.715Z,100787.38
2022-10-29T10:32:31.194Z,100780.16
2022-10-29T10:34:58.179Z,100780.34
2022-10-29T10:37:25.081Z,100772.63
2022-10-29T10:39:54.779Z,100767.50
2022-10-29T10:42:32.703Z,100763.41
2022-10-29T10:45:04.470Z,100777.72
2022-10-29T10:47:36.634Z,100769.66
2022-10-29T10:50:26.865Z,100763.50
2022-10-29T10:52:55.657Z,100760.09
2022-10-29T10:55:33.221Z,100756.69
2022-10-29T10:58:07.009Z,100757.72
2022-10-29T11:00:44.227Z,100757.81
2022-10-29T11:03:20.421Z,100751.56
2022-10-29T11:06:02.454Z,100745.53
2022-10-29T11:08:48.470Z,100743.06
2022-10-29T11:11:25.313Z,100743.06
2022-10-29T11:13:53.242Z,100744.94
2022-10-29T11:16:53.266Z,100747.69
2022-10-29T11:19:40.382Z,100751.28
2022-10-29T11:22:12.883Z,100742.56
2022-10-29T11:24:56.694Z,100747.03
2022-10-29T11:27:33.769Z,100742.78
2022-10-29T11:30:06.890Z,100736.59
2022-10-29T11:32:39.328Z,100736.59
2022-10-29T11:35:13.582Z,100742.00
2022-10-29T11:37:40.378Z,100744.75
2022-10-29T11:40:24.395Z,100735.06
2022-10-29T11:42:51.364Z,100731.69
2022-10-29T11:45:26.924Z,100725.63
2022-10-29T11:48:08.818Z,100721.44
2022-10-29T11:50:48.052Z,100720.56
2022-10-29T11:53:52.621Z,100715.38
2022-10-29T11:56:19.445Z,100708.59
2022-10-29T11:59:04.830Z,100716.31
2022-10-29T12:01:46.828Z,100707.44
2022-10-29T12:04:23.957Z,100699.78
2022-10-29T12:07:11.255Z,100689.19
2022-10-29T12:09:38.200Z,100683.88
2022-10-29T12:12:10.409Z,100678.28
2022-10-29T12:14:44.633Z,100684.25
2022-10-29T12:17:41.656Z,100678.66
2022-10-29T12:20:27.895Z,100678.47
2022-10-29T12:23:15.555Z,100674.78
2022-10-29T12:26:00.697Z,100667.69
2022-10-29T12:28:53.591Z,100659.56
2022-10-29T12:32:00.016Z,100669.19
2022-10-29T12:34:36.516Z,100669.00
2022-10-29T12:37:14.450Z,100660.13
2022-10-29T12:39:49.219Z,100665.31
2022-10-29T12:42:28.144Z,100661.63
2022-10-29T12:45:14.185Z,100650.16
2022-10-29T12:48:11.298Z,100653.59
2022-10-29T12:51:04.228Z,100651.75
2022-10-29T12:54:12.552Z,100639.28
2022-10-29T12:56:40.294Z,100640.97
2022-10-29T12:59:25.529Z,100638.97
2022-10-29T13:05:11.754Z,100633.50
2022-10-29T13:08:04.325Z,100634.53
2022-10-29T13:10:33.918Z,100632.63
2022-10-29T13:13:06.975Z,100634.44
2022-10-29T13:16:02.796Z,100632.63
2022-10-29T13:19:04.420Z,100621.16
2022-10-29T13:21:56.586Z,100611.22
2022-10-29T13:24:24.499Z,100608.47
2022-10-29T13:26:56.317Z,100595.31
2022-10-29T13:30:10.281Z,100590.75
2022-10-29T13:32:38.947Z,100586.13
2022-10-29T13:35:17.908Z,100586.13
2022-10-29T13:37:47.586Z,100568.41
2022-10-29T13:40:26.571Z,100580.72
2022-10-29T13:43:19.912Z,100561.22
2022-10-29T13:45:52.450Z,100551.44
2022-10-29T13:48:35.813Z,100547.75
2022-10-29T13:51:08.282Z,100543.38
2022-10-29T13:53:59.392Z,100540.53
2022-10-29T13:56:36.183Z,100535.53
2022-10-29T13:59:08.922Z,100538.28
2022-10-29T14:01:36.936Z,100529.97
2022-10-29T14:04:24.533Z,100526.38
2022-10-29T14:06:54.895Z,100511.59
2022-10-29T14:09:30.116Z,100507.28
2022-10-29T14:12:03.694Z,100501.19
2022-10-29T14:14:37.129Z,100503.84
2022-10-29T14:17:16.238Z,100502.16
2022-10-29T14:19:50.461Z,100490.41
2022-10-29T14:22:24.032Z,100492.66
2022-10-29T14:24:51.160Z,100492.44
2022-10-29T14:27:18.080Z,100474.75
2022-10-29T14:29:45.068Z,100478.25
2022-10-29T14:32:15.893Z,100482.69
2022-10-29T14:34:45.465Z,100468.47
2022-10-29T14:37:32.165Z,100462.22
2022-10-29T14:40:03.331Z,100448.84
2022-10-29T14:42:38.649Z,100452.16
2022-10-29T14:45:16.274Z,100453.00
2022-10-29T14:47:43.655Z,100445.72
2022-10-29T14:50:20.828Z,100440.09
2022-10-29T14:52:53.749Z,100450.50
2022-10-29T14:55:23.180Z,100435.31
2022-10-29T14:57:59.192Z,100446.50
2022-10-29T15:00:31.849Z,100437.59
2022-10-29T15:02:59.341Z,100435.69
2022-10-29T15:05:32.077Z,100436.41
2022-10-29T15:08:11.153Z,100426.53
2022-10-29T15:10:48.368Z,100428.13
2022-10-29T15:13:27.303Z,100420.81
2022-10-29T15:16:16.655Z,100423.16
2022-10-29T15:18:48.920Z,100414.91
2022-10-29T15:21:42.192Z,100408.31
2022-10-29T15:24:19.485Z,100409.78
2022-10-29T15:26:55.678Z,100397.03
2022-10-29T15:29:34.017Z,100386.84
2022-10-29T15:32:02.872Z,100380.25
2022-10-29T15:34:37.411Z,100377.28
2022-10-29T15:37:19.438Z,100366.53
2022-10-29T15:40:05.397Z,100357.28
2022-10-29T15:42:37.216Z,100355.13
2022-10-29T15:45:17.215Z,100357.50
2022-10-29T15:48:18.852Z,100364.38
2022-10-29T15:50:46.755Z,100356.19
2022-10-29T15:53:17.570Z,100368.41
2022-10-29T15:55:45.451Z,100359.69
2022-10-29T15:58:23.142Z,100346.09
2022-10-29T16:00:50.953Z,100345.97
2022-10-29T16:03:21.582Z,100339.56
2022-10-29T16:05:51.546Z,100337.69
2022-10-29T16:08:43.566Z,100338.06
2022-10-29T16:11:17.662Z,100329.75
2022-10-29T16:13:46.329Z,100340.81
2022-10-29T16:16:23.962Z,100345.06
2022-10-29T16:18:51.892Z,100337.81
2022-10-29T16:21:25.279Z,100342.47
2022-10-29T16:23:53.304Z,100343.06
2022-10-29T16:26:24.030Z,100346.47
2022-10-29T16:28:55.034Z,100337.41
2022-10-29T16:31:25.945Z,100325.13
2022-10-29T16:33:57.116Z,100318.84
2022-10-29T16:36:24.547Z,100318.50
2022-10-29T16:38:53.066Z,100319.72
2022-10-29T16:41:20.819Z,100318.63
2022-10-29T16:43:48.751Z,100311.50
2022-10-29T16:46:18.470Z,100310.56
2022-10-29T16:48:46.936Z,100313.72
2022-10-29T16:51:15.265Z,100303.06
2022-10-29T16:53:42.432Z,100293.28
2022-10-29T16:56:09.508Z,100290.63
2022-10-29T16:58:37.180Z,100288.72
2022-10-29T17:01:11.284Z,100290.16
2022-10-29T17:03:41.893Z,100297.78
2022-10-29T17:06:11.119Z,100294.16
2022-10-29T17:08:41.640Z,100292.59
2022-10-29T17:11:11.695Z,100281.56
2022-10-29T17:13:39.328Z,100283.66
2022-10-29T17:16:12.898Z,100274.19
2022-10-29T17:18:40.130Z,100272.25
2022-10-29T17:21:08.386Z,100262.22
2022-10-29T17:23:38.445Z,100262.00
2022-10-29T17:26:09.338Z,100278.09
2022-10-29T17:28:39.443Z,100276.38
2022-10-29T17:31:10.586Z,100275.91
2022-10-29T17:33:38.271Z,100267.31
2022-10-29T17:36:08.954Z,100266.69
2022-10-29T17:38:36.444Z,100284.72
2022-10-29T17:41:04.792Z,100286.75
2022-10-29T17:43:32.101Z,100289.41
2022-10-29T17:45:59.607Z,100287.69
2022-10-29T17:48:26.792Z,100272.00
2022-10-29T17:51:02.276Z,100263.03
2022-10-29T17:53:32.369Z,100266.44
2022-10-29T17:56:01.001Z,100270.78
2022-10-29T17:58:28.415Z,100254.72
2022-10-29T18:00:55.963Z,100243.97
2022-10-29T18:03:28.835Z,100251.09
2022-10-29T18:06:03.468Z,100254.59
2022-10-29T18:08:31.635Z,100244.44
2022-10-29T18:11:09.494Z,100246.25
2022-10-29T18:13:41.806Z,100241.91
2022-10-29T18:16:11.187Z,100244.22
2022-10-29T18:18:54.305Z,100238.91
2022-10-29T18:21:27.752Z,100236.00
2022-10-29T18:23:54.823Z,100255.56
2022-10-29T18:26:33.195Z,100234.78
2022-10-29T18:29:03.205Z,100223.66
2022-10-29T18:31:33.161Z,100212.06
2022-10-29T18:34:05.045Z,100226.59
2022-10-29T18:36:32.878Z,100235.19
2022-10-29T18:39:00.515Z,100241.47
2022-10-29T18:41:29.077Z,100238.19
2022-10-29T18:43:57.663Z,100233.72
2022-10-29T18:46:25.569Z,100235.66
2022-10-29T18:48:53.073Z,100229.97
2022-10-29T18:51:24.799Z,100238.66
2022-10-29T18:53:53.313Z,100236.00
2022-10-29T18:56:22.386Z,100222.59
2022-10-29T18:58:49.734Z,100224.63
2022-10-29T19:01:27.826Z,100224.63
2022-10-29T19:03:57.453Z,100232.00
2022-10-29T19:06:26.031Z,100235.50
2022-10-29T19:08:53.207Z,100225.56
2022-10-29T19:11:27.117Z,100213.97
2022-10-29T19:14:00.540Z,100208.41
2022-10-29T19:16:29.309Z,100221.72
2022-10-29T19:18:58.433Z,100236.22
2022-10-29T19:21:26.607Z,100227.75
2022-10-29T19:23:55.814Z,100214.94
2022-10-29T19:26:24.388Z,100204.16
2022-10-29T19:28:51.447Z,100205.00
2022-10-29T19:31:22.872Z,100212.03
2022-10-29T19:33:55.283Z,100212.16
2022-10-29T19:36:24.013Z,100209.84
2022-10-29T19:38:51.099Z,100219.78
2022-10-29T19:41:19.434Z,100212.03
2022-10-29T19:43:46.879Z,100214.22
2022-10-29T19:46:16.647Z,100227.53
2022-10-29T19:48:49.871Z,100243.66
2022-10-29T19:51:17.861Z,100233.25
2022-10-29T19:53:45.445Z,100232.38
2022-10-29T19:56:14.219Z,100222.84
2022-10-29T19:58:41.473Z,100222.84
2022-10-29T20:01:11.931Z,100223.69
2022-10-29T20:03:39.504Z,100233.47
2022-10-29T20:06:10.082Z,100230.91
2022-10-29T20:08:38.849Z,100247.16
2022-10-29T20:11:10.106Z,100240.38
2022-10-29T20:13:38.903Z,100243.66
2022-10-29T20:16:11.456Z,100243.03
2022-10-29T20:18:39.896Z,100241.59
2022-10-29T20:21:09.166Z,100250.88
2022-10-29T20:23:36.969Z,100238.91
2022-10-29T20:26:04.304Z,100247.22
2022-10-29T20:28:31.820Z,100253.03
2022-10-29T20:31:18.445Z,100256.78
2022-10-29T20:33:50.620Z,100255.31
2022-10-29T20:36:18.299Z,100242.25
2022-10-29T20:38:49.980Z,100245.41
2022-10-29T20:41:17.801Z,100242.84
2022-10-29T20:43:45.951Z,100245.03
2022-10-29T20:46:13.287Z,100242.50
2022-10-29T20:48:40.210Z,100251.66
2022-10-29T20:51:07.390Z,100242.97
2022-10-29T20:53:34.728Z,100239.59
2022-10-29T20:56:02.943Z,100244.16
2022-10-29T20:58:30.235Z,100247.06
2022-10-29T21:01:05.672Z,100258.78
2022-10-29T21:03:35.271Z,100236.19
2022-10-29T21:06:11.081Z,100246.06
2022-10-29T21:08:41.526Z,100244.59
2022-10-29T21:11:11.914Z,100232.41
2022-10-29T21:13:39.198Z,100229.97
2022-10-29T21:16:22.176Z,100229.84
2022-10-29T21:18:54.444Z,100223.09
2022-10-29T21:21:22.188Z,100225.97
2022-10-29T21:23:49.741Z,100225.34
2022-10-29T21:26:19.014Z,100222.81
2022-10-29T21:28:46.259Z,100223.91
2022-10-29T21:31:13.971Z,100221.34
2022-10-29T21:33:41.076Z,100210.97
2022-10-29T21:36:08.551Z,100213.81
2022-10-29T21:38:35.756Z,100226.34
2022-10-29T21:41:02.847Z,100217.78
2022-10-29T21:43:30.236Z,100213.31
2022-10-29T21:45:57.760Z,100221.38
2022-10-29T21:48:29.168Z,100217.28
2022-10-29T21:51:21.675Z,100219.94
2022-10-29T21:53:49.078Z,100214.72
2022-10-29T21:56:16.439Z,100214.13
2022-10-29T21:58:43.826Z,100215.94
2022-10-29T22:01:11.817Z,100224.13
2022-10-29T22:03:41.800Z,100232.09
2022-10-29T22:06:18.657Z,100223.50
2022-10-29T22:08:47.015Z,100216.50
2022-10-29T22:11:15.288Z,100203.56
2022-10-29T22:13:42.364Z,100213.94
2022-10-29T22:16:10.172Z,100218.66
2022-10-29T22:18:38.211Z,100218.66
2022-10-29T22:21:13.471Z,100213.44
2022-10-29T22:23:48.963Z,100217.06
2022-10-29T22:26:18.242Z,100213.66
2022-10-29T22:28:47.488Z,100216.44
2022-10-29T22:31:15.529Z,100216.69
2022-10-29T22:33:45.859Z,100221.13
2022-10-29T22:36:18.261Z,100218.59
2022-10-29T22:38:45.874Z,100220.63
2022-10-29T22:41:17.925Z,100230.31
2022-10-29T22:43:45.117Z,100235.59
2022-10-29T22:46:16.584Z,100232.19
2022-10-29T22:48:43.952Z,100221.69
2022-10-29T22:51:24.934Z,100217.25
2022-10-29T22:53:53.424Z,100218.41
2022-10-29T22:56:23.181Z,100223.00
2022-10-29T22:58:50.784Z,100230.97
2022-10-29T23:01:20.751Z,100215.16
2022-10-29T23:03:47.924Z,100211.66
2022-10-29T23:06:21.010Z,100210.78
2022-10-29T23:08:48.617Z,100217.91
2022-10-29T23:11:20.881Z,100225.16
2022-10-29T23:13:49.215Z,100221.00
2022-10-29T23:16:16.951Z,100228.97
2022-10-29T23:18:47.857Z,100229.09
2022-10-29T23:21:14.742Z,100238.84
2022-10-29T23:23:41.679Z,100231.09
2022-10-29T23:26:08.876Z,100232.09
2022-10-29T23:28:39.088Z,100229.53
2022-10-29T23:31:11.414Z,100234.97
2022-10-29T23:33:38.441Z,100235.91
2022-10-29T23:36:07.522Z,100230.00
2022-10-29T23:38:34.889Z,100232.66
2022-10-29T23:41:02.133Z,100236.13
2022-10-29T23:43:29.613Z,100231.16
2022-10-29T23:45:56.517Z,100226.69
2022-10-29T23:48:23.983Z,100221.47
2022-10-29T23:50:51.374Z,100228.50
2022-10-29T23:53:18.789Z,100218.22
2022-10-29T23:55:46.304Z,100225.22
2022-10-29T23:58:13.799Z,100234.16
